sensor_id;sensor_type;location;lat;lon;timestamp;temperature;humidity
12843;DHT22;35724;49.324;-123.118;2023-02-20T00:07:45;21.50;41.80
12843;DHT22;35724;49.324;-123.118;2023-02-20T00:17:55;21.50;41.70
12843;DHT22;35724;49.324;-123.118;2023-02-20T00:28:02;21.40;42.30
12843;DHT22;35724;49.324;-123.118;2023-02-20T00:38:10;21.40;42.80
12843;DHT22;35724;49.324;-123.118;2023-02-20T00:48:17;21.30;42.70
12843;DHT22;35724;49.324;-123.118;2023-02-20T00:58:25;21.20;43.00
12843;DHT22;35724;49.324;-123.118;2023-02-20T01:08:33;21.10;42.90
12843;DHT22;35724;49.324;-123.118;2023-02-20T01:18:42;20.90;42.90
12843;DHT22;35724;49.324;-123.118;2023-02-20T01:28:49;20.80;43.10
12843;DHT22;35724;49.324;-123.118;2023-02-20T01:38:57;20.70;43.30
12843;DHT22;35724;49.324;-123.118;2023-02-20T01:49:06;20.70;43.30
12843;DHT22;35724;49.324;-123.118;2023-02-20T01:59:17;20.60;43.30
12843;DHT22;35724;49.324;-123.118;2023-02-20T02:09:36;20.50;43.50
12843;DHT22;35724;49.324;-123.118;2023-02-20T02:20:16;20.40;43.60
12843;DHT22;35724;49.324;-123.118;2023-02-20T02:41:17;20.30;43.30
12843;DHT22;35724;49.324;-123.118;2023-02-20T02:51:30;20.10;43.20
12843;DHT22;35724;49.324;-123.118;2023-02-20T03:01:43;20.10;43.70
12843;DHT22;35724;49.324;-123.118;2023-02-20T03:11:52;20.10;44.20
12843;DHT22;35724;49.324;-123.118;2023-02-20T03:22:04;20.00;44.70
12843;DHT22;35724;49.324;-123.118;2023-02-20T03:32:17;19.90;44.50
12843;DHT22;35724;49.324;-123.118;2023-02-20T03:42:45;20.00;45.40
12843;DHT22;35724;49.324;-123.118;2023-02-20T03:53:13;20.60;45.30
12843;DHT22;35724;49.324;-123.118;2023-02-20T04:03:24;21.20;45.70
12843;DHT22;35724;49.324;-123.118;2023-02-20T04:13:33;21.60;47.00
12843;DHT22;35724;49.324;-123.118;2023-02-20T04:23:45;21.80;47.00
12843;DHT22;35724;49.324;-123.118;2023-02-20T04:33:55;22.00;46.30
12843;DHT22;35724;49.324;-123.118;2023-02-20T04:44:04;22.00;45.60
12843;DHT22;35724;49.324;-123.118;2023-02-20T04:54:31;22.20;45.80
12843;DHT22;35724;49.324;-123.118;2023-02-20T05:04:40;22.30;45.60
12843;DHT22;35724;49.324;-123.118;2023-02-20T05:14:47;22.60;45.30
12843;DHT22;35724;49.324;-123.118;2023-02-20T05:24:57;22.70;45.40
12843;DHT22;35724;49.324;-123.118;2023-02-20T05:35:05;22.80;45.60
12843;DHT22;35724;49.324;-123.118;2023-02-20T05:45:13;22.90;45.30
12843;DHT22;35724;49.324;-123.118;2023-02-20T05:55:20;23.10;45.00
12843;DHT22;35724;49.324;-123.118;2023-02-20T06:05:29;23.30;44.90
12843;DHT22;35724;49.324;-123.118;2023-02-20T06:15:35;23.40;44.80
12843;DHT22;35724;49.324;-123.118;2023-02-20T06:25:44;23.50;44.50
12843;DHT22;35724;49.324;-123.118;2023-02-20T06:35:52;23.50;44.50
12843;DHT22;35724;49.324;-123.118;2023-02-20T06:46:00;23.50;44.80
12843;DHT22;35724;49.324;-123.118;2023-02-20T06:56:07;23.60;44.90
12843;DHT22;35724;49.324;-123.118;2023-02-20T07:06:17;23.70;44.90
12843;DHT22;35724;49.324;-123.118;2023-02-20T07:16:24;23.70;45.10
12843;DHT22;35724;49.324;-123.118;2023-02-20T07:26:33;23.80;45.00
12843;DHT22;35724;49.324;-123.118;2023-02-20T07:36:42;23.80;44.50
12843;DHT22;35724;49.324;-123.118;2023-02-20T07:46:51;23.90;44.20
12843;DHT22;35724;49.324;-123.118;2023-02-20T07:56:58;24.00;44.00
12843;DHT22;35724;49.324;-123.118;2023-02-20T08:07:06;24.10;44.00
12843;DHT22;35724;49.324;-123.118;2023-02-20T08:17:13;24.20;43.80
12843;DHT22;35724;49.324;-123.118;2023-02-20T08:27:22;24.30;43.40
12843;DHT22;35724;49.324;-123.118;2023-02-20T08:37:28;24.30;43.10
12843;DHT22;35724;49.324;-123.118;2023-02-20T08:47:37;24.30;43.10
12843;DHT22;35724;49.324;-123.118;2023-02-20T08:57:43;24.30;43.00
12843;DHT22;35724;49.324;-123.118;2023-02-20T09:07:52;24.30;43.00
12843;DHT22;35724;49.324;-123.118;2023-02-20T09:17:59;24.30;42.90
12843;DHT22;35724;49.324;-123.118;2023-02-20T09:28:08;24.30;42.80
12843;DHT22;35724;49.324;-123.118;2023-02-20T09:38:15;24.40;42.80
12843;DHT22;35724;49.324;-123.118;2023-02-20T09:48:33;24.40;42.80
12843;DHT22;35724;49.324;-123.118;2023-02-20T09:58:48;24.40;43.30
12843;DHT22;35724;49.324;-123.118;2023-02-20T10:09:00;24.50;42.60
12843;DHT22;35724;49.324;-123.118;2023-02-20T10:19:13;24.50;42.40
12843;DHT22;35724;49.324;-123.118;2023-02-20T10:29:26;24.50;42.50
12843;DHT22;35724;49.324;-123.118;2023-02-20T10:39:35;24.50;42.40
12843;DHT22;35724;49.324;-123.118;2023-02-20T10:49:47;24.50;42.20
12843;DHT22;35724;49.324;-123.118;2023-02-20T11:00:00;24.60;42.20
12843;DHT22;35724;49.324;-123.118;2023-02-20T11:10:10;24.60;42.00
12843;DHT22;35724;49.324;-123.118;2023-02-20T11:20:36;24.60;42.10
12843;DHT22;35724;49.324;-123.118;2023-02-20T11:30:48;24.60;41.90
12843;DHT22;35724;49.324;-123.118;2023-02-20T11:41:22;24.60;41.80
12843;DHT22;35724;49.324;-123.118;2023-02-20T11:51:39;24.60;41.90
12843;DHT22;35724;49.324;-123.118;2023-02-20T12:01:46;24.60;41.80
12843;DHT22;35724;49.324;-123.118;2023-02-20T12:12:07;24.60;41.70
12843;DHT22;35724;49.324;-123.118;2023-02-20T12:22:21;24.60;41.70
12843;DHT22;35724;49.324;-123.118;2023-02-20T12:32:47;24.60;41.60
12843;DHT22;35724;49.324;-123.118;2023-02-20T12:43:05;24.60;41.50
12843;DHT22;35724;49.324;-123.118;2023-02-20T12:53:29;24.70;41.60
12843;DHT22;35724;49.324;-123.118;2023-02-20T13:03:47;24.70;41.50
12843;DHT22;35724;49.324;-123.118;2023-02-20T13:14:03;24.70;41.50
12843;DHT22;35724;49.324;-123.118;2023-02-20T13:24:29;24.70;41.60
12843;DHT22;35724;49.324;-123.118;2023-02-20T13:34:39;24.70;41.60
12843;DHT22;35724;49.324;-123.118;2023-02-20T13:44:47;24.70;41.50
12843;DHT22;35724;49.324;-123.118;2023-02-20T13:54:56;24.70;41.50
12843;DHT22;35724;49.324;-123.118;2023-02-20T14:05:05;24.70;41.50
12843;DHT22;35724;49.324;-123.118;2023-02-20T14:15:14;24.80;41.50
12843;DHT22;35724;49.324;-123.118;2023-02-20T14:25:23;24.80;41.40
12843;DHT22;35724;49.324;-123.118;2023-02-20T14:35:43;24.80;41.40
12843;DHT22;35724;49.324;-123.118;2023-02-20T14:46:01;24.80;41.30
12843;DHT22;35724;49.324;-123.118;2023-02-20T14:56:15;24.80;41.30
12843;DHT22;35724;49.324;-123.118;2023-02-20T15:06:22;24.80;41.60
12843;DHT22;35724;49.324;-123.118;2023-02-20T15:16:32;24.80;41.40
12843;DHT22;35724;49.324;-123.118;2023-02-20T15:26:43;24.80;41.30
12843;DHT22;35724;49.324;-123.118;2023-02-20T15:36:53;24.80;41.20
12843;DHT22;35724;49.324;-123.118;2023-02-20T15:46:59;24.80;42.00
12843;DHT22;35724;49.324;-123.118;2023-02-20T15:57:14;24.80;42.00
12843;DHT22;35724;49.324;-123.118;2023-02-20T16:07:21;24.80;42.00
12843;DHT22;35724;49.324;-123.118;2023-02-20T16:17:32;24.80;42.00
12843;DHT22;35724;49.324;-123.118;2023-02-20T16:27:39;24.80;42.30
12843;DHT22;35724;49.324;-123.118;2023-02-20T16:37:48;24.80;42.20
12843;DHT22;35724;49.324;-123.118;2023-02-20T16:47:55;24.80;42.30
12843;DHT22;35724;49.324;-123.118;2023-02-20T16:58:06;24.90;42.90
12843;DHT22;35724;49.324;-123.118;2023-02-20T17:08:18;25.00;43.10
12843;DHT22;35724;49.324;-123.118;2023-02-20T17:18:27;25.20;42.80
12843;DHT22;35724;49.324;-123.118;2023-02-20T17:28:33;25.20;42.90
12843;DHT22;35724;49.324;-123.118;2023-02-20T17:39:07;25.20;42.80
12843;DHT22;35724;49.324;-123.118;2023-02-20T17:49:15;25.20;44.00
12843;DHT22;35724;49.324;-123.118;2023-02-20T17:59:23;25.20;43.70
12843;DHT22;35724;49.324;-123.118;2023-02-20T18:09:30;25.10;43.40
12843;DHT22;35724;49.324;-123.118;2023-02-20T18:19:40;25.00;43.90
12843;DHT22;35724;49.324;-123.118;2023-02-20T18:29:47;25.00;43.10
12843;DHT22;35724;49.324;-123.118;2023-02-20T18:39:57;25.00;42.50
12843;DHT22;35724;49.324;-123.118;2023-02-20T18:50:04;24.80;42.80
12843;DHT22;35724;49.324;-123.118;2023-02-20T19:00:15;24.50;43.10
12843;DHT22;35724;49.324;-123.118;2023-02-20T19:10:24;24.40;43.70
12843;DHT22;35724;49.324;-123.118;2023-02-20T19:20:33;24.20;43.80
12843;DHT22;35724;49.324;-123.118;2023-02-20T19:30:40;24.10;44.20
12843;DHT22;35724;49.324;-123.118;2023-02-20T19:40:49;24.20;44.50
12843;DHT22;35724;49.324;-123.118;2023-02-20T19:50:56;24.10;45.00
12843;DHT22;35724;49.324;-123.118;2023-02-20T20:01:05;24.10;44.90
12843;DHT22;35724;49.324;-123.118;2023-02-20T20:11:12;23.90;45.00
12843;DHT22;35724;49.324;-123.118;2023-02-20T20:21:20;24.10;45.10
12843;DHT22;35724;49.324;-123.118;2023-02-20T20:31:34;24.30;44.90
12843;DHT22;35724;49.324;-123.118;2023-02-20T20:41:44;24.30;45.00
12843;DHT22;35724;49.324;-123.118;2023-02-20T20:51:51;24.30;44.90
12843;DHT22;35724;49.324;-123.118;2023-02-20T21:02:04;24.20;45.70
12843;DHT22;35724;49.324;-123.118;2023-02-20T21:12:12;23.90;45.50
12843;DHT22;35724;49.324;-123.118;2023-02-20T21:22:22;23.90;46.40
12843;DHT22;35724;49.324;-123.118;2023-02-20T21:32:28;23.80;48.30
12843;DHT22;35724;49.324;-123.118;2023-02-20T21:42:38;23.90;48.00
12843;DHT22;35724;49.324;-123.118;2023-02-20T21:53:04;24.00;48.40
12843;DHT22;35724;49.324;-123.118;2023-02-20T22:03:13;24.10;47.00
12843;DHT22;35724;49.324;-123.118;2023-02-20T22:13:18;24.20;47.20
12843;DHT22;35724;49.324;-123.118;2023-02-20T22:23:45;24.20;46.90
12843;DHT22;35724;49.324;-123.118;2023-02-20T22:34:33;24.30;46.70
12843;DHT22;35724;49.324;-123.118;2023-02-20T22:45:18;24.30;46.50
12843;DHT22;35724;49.324;-123.118;2023-02-20T22:55:41;24.40;46.70
12843;DHT22;35724;49.324;-123.118;2023-02-20T23:06:06;24.50;46.40
12843;DHT22;35724;49.324;-123.118;2023-02-20T23:16:29;24.50;45.90
12843;DHT22;35724;49.324;-123.118;2023-02-20T23:26:54;24.50;45.80
12843;DHT22;35724;49.324;-123.118;2023-02-20T23:37:18;24.50;45.70
12843;DHT22;35724;49.324;-123.118;2023-02-20T23:47:44;24.50;46.60
12843;DHT22;35724;49.324;-123.118;2023-02-20T23:58:10;24.60;46.30
